createdAt,value
2022-12-28T00:01:24.706Z,4.33
2022-12-28T00:03:53.972Z,4.77
2022-12-28T00:06:24.917Z,3.47
2022-12-28T00:08:54.753Z,3.97
2022-12-28T00:11:26.575Z,3.53
2022-12-28T00:14:00.094Z,5.53
2022-12-28T00:16:29.768Z,3.23
2022-12-28T00:18:58.853Z,6.87
2022-12-28T00:21:28.671Z,4.53
2022-12-28T00:23:58.607Z,6.27
2022-12-28T00:26:27.692Z,5.60
2022-12-28T00:28:59.859Z,6.67
2022-12-28T00:31:32.097Z,5.03
2022-12-28T00:33:59.984Z,3.83
2022-12-28T00:37:10.212Z,5.70
2022-12-28T00:39:17.100Z,5.47
2022-12-28T00:41:44.871Z,4.07
2022-12-28T00:44:12.638Z,4.03
2022-12-28T00:46:40.387Z,5.13
2022-12-28T00:49:08.230Z,4.67
2022-12-28T00:51:37.345Z,4.13
2022-12-28T00:54:05.426Z,5.30
2022-12-28T00:56:33.148Z,5.00
2022-12-28T00:59:01.587Z,6.60
2022-12-28T01:01:30.327Z,6.23
2022-12-28T01:03:59.026Z,4.33
2022-12-28T01:06:28.388Z,4.20
2022-12-28T01:08:57.494Z,5.83
2022-12-28T01:11:27.249Z,6.23
2022-12-28T01:13:56.483Z,6.57
2022-12-28T01:16:26.113Z,6.30
2022-12-28T01:18:56.272Z,4.40
2022-12-28T01:21:27.204Z,6.10
2022-12-28T01:23:57.779Z,5.87
2022-12-28T01:26:25.923Z,8.07
2022-12-28T01:28:53.695Z,5.67
2022-12-28T01:31:22.968Z,8.03
2022-12-28T01:33:51.028Z,5.70
2022-12-28T01:36:20.747Z,5.43
2022-12-28T01:38:49.973Z,8.37
2022-12-28T01:41:20.381Z,9.07
2022-12-28T01:44:10.303Z,6.57
2022-12-28T01:46:40.965Z,6.67
2022-12-28T01:49:13.137Z,8.90
2022-12-28T01:51:48.952Z,7.50
2022-12-28T01:54:17.883Z,8.17
2022-12-28T01:56:48.540Z,7.67
2022-12-28T01:59:18.574Z,9.07
2022-12-28T02:01:46.752Z,8.57
2022-12-28T02:04:14.627Z,9.53
2022-12-28T02:06:42.456Z,7.30
2022-12-28T02:09:15.439Z,10.20
2022-12-28T02:11:43.193Z,11.37
2022-12-28T02:14:14.791Z,11.30
2022-12-28T02:16:43.838Z,8.97
2022-12-28T02:19:19.196Z,11.40
2022-12-28T02:21:56.422Z,9.53
2022-12-28T02:24:45.861Z,11.77
2022-12-28T02:27:24.808Z,10.07
2022-12-28T02:30:04.019Z,11.17
2022-12-28T02:32:46.435Z,11.70
2022-12-28T02:35:22.785Z,10.47
2022-12-28T02:37:55.832Z,10.27
2022-12-28T02:40:27.608Z,10.90
2022-12-28T02:42:56.220Z,12.73
2022-12-28T02:45:51.382Z,14.00
2022-12-28T02:48:36.653Z,10.30
2022-12-28T02:51:21.614Z,12.93
2022-12-28T02:54:08.618Z,10.07
2022-12-28T02:56:44.957Z,12.03
2022-12-28T02:59:44.936Z,13.93
2022-12-28T03:02:35.230Z,12.40
2022-12-28T03:05:12.921Z,11.77
2022-12-28T03:08:09.314Z,13.70
2022-12-28T03:10:45.756Z,15.77
2022-12-28T03:13:37.387Z,11.80
2022-12-28T03:16:09.157Z,15.80
2022-12-28T03:18:58.789Z,17.63
2022-12-28T03:21:46.642Z,11.87
2022-12-28T03:24:35.434Z,13.20
2022-12-28T03:27:24.730Z,14.90
2022-12-28T03:30:18.161Z,16.53
2022-12-28T03:32:47.222Z,12.93
2022-12-28T03:35:17.587Z,13.50
2022-12-28T03:37:51.405Z,14.80
2022-12-28T03:40:28.488Z,14.63
2022-12-28T03:43:18.102Z,13.00
2022-12-28T03:45:53.035Z,12.47
2022-12-28T03:48:21.061Z,15.67
2022-12-28T03:50:52.014Z,14.00
2022-12-28T03:53:25.330Z,14.00
2022-12-28T03:55:53.076Z,14.53
2022-12-28T03:58:22.481Z,14.60
2022-12-28T04:00:50.215Z,14.10
2022-12-28T04:03:18.016Z,13.90
2022-12-28T04:05:45.731Z,13.60
2022-12-28T04:08:14.796Z,13.30
2022-12-28T04:10:42.487Z,14.37
2022-12-28T04:13:10.192Z,15.47
2022-12-28T04:15:39.312Z,14.00
2022-12-28T04:18:07.079Z,13.07
2022-12-28T04:20:35.396Z,13.23
2022-12-28T04:23:03.114Z,15.37
2022-12-28T04:25:32.164Z,14.93
2022-12-28T04:27:59.818Z,14.23
2022-12-28T04:30:27.533Z,13.50
2022-12-28T04:32:56.598Z,12.27
2022-12-28T04:35:24.294Z,13.80
2022-12-28T04:37:52.019Z,14.30
2022-12-28T04:40:19.711Z,14.07
2022-12-28T04:42:48.956Z,14.63
2022-12-28T04:45:21.720Z,15.27
2022-12-28T04:47:49.976Z,14.57
2022-12-28T04:50:17.702Z,14.50
2022-12-28T04:52:45.316Z,13.13
2022-12-28T04:55:32.072Z,14.23
2022-12-28T04:58:02.369Z,17.67
2022-12-28T05:00:30.189Z,13.10
2022-12-28T05:02:59.759Z,11.37
2022-12-28T05:05:28.466Z,14.40
2022-12-28T05:07:56.193Z,12.90
2022-12-28T05:10:23.846Z,12.87
2022-12-28T05:12:51.547Z,12.10
2022-12-28T05:15:20.639Z,11.73
2022-12-28T05:17:48.443Z,13.47
2022-12-28T05:20:18.041Z,10.67
2022-12-28T05:22:45.777Z,12.53
2022-12-28T05:25:13.468Z,12.07
2022-12-28T05:27:41.234Z,14.37
2022-12-28T05:30:10.123Z,12.30
2022-12-28T05:32:39.253Z,12.23
2022-12-28T05:35:07.995Z,11.33
2022-12-28T05:37:35.658Z,13.47
2022-12-28T05:40:03.740Z,12.80
2022-12-28T05:42:31.497Z,14.17
2022-12-28T05:44:59.280Z,10.67
2022-12-28T05:47:27.254Z,12.63
2022-12-28T05:49:56.299Z,15.60
2022-12-28T05:52:24.009Z,11.73
2022-12-28T05:54:51.750Z,11.70
2022-12-28T05:57:19.449Z,11.33
2022-12-28T05:59:47.099Z,12.30
2022-12-28T06:02:17.094Z,11.70
2022-12-28T06:04:46.818Z,14.27
2022-12-28T06:07:16.106Z,12.73
2022-12-28T06:09:43.896Z,11.80
2022-12-28T06:12:11.596Z,11.87
2022-12-28T06:14:39.403Z,13.80
2022-12-28T06:17:07.093Z,14.60
2022-12-28T06:19:34.835Z,12.90
2022-12-28T06:22:02.815Z,13.43
2022-12-28T06:24:31.897Z,13.60
2022-12-28T06:26:59.544Z,13.60
2022-12-28T06:29:27.234Z,14.53
2022-12-28T06:31:56.564Z,13.83
2022-12-28T06:34:24.419Z,13.97
2022-12-28T06:36:52.553Z,15.23
2022-12-28T06:39:20.315Z,13.03
2022-12-28T06:41:49.431Z,13.67
2022-12-28T06:44:17.199Z,13.63
2022-12-28T06:46:44.939Z,14.30
2022-12-28T06:49:12.738Z,15.87
2022-12-28T06:51:41.991Z,14.03
2022-12-28T06:54:10.688Z,14.00
2022-12-28T06:56:38.819Z,15.80
2022-12-28T06:59:08.256Z,14.53
2022-12-28T07:01:38.515Z,13.87
2022-12-28T07:04:10.387Z,14.17
2022-12-28T07:06:40.167Z,14.77
2022-12-28T07:09:10.385Z,14.10
2022-12-28T07:11:38.421Z,17.90
2022-12-28T07:14:07.558Z,15.07
2022-12-28T07:19:02.464Z,13.97
2022-12-28T07:21:32.727Z,15.20
2022-12-28T07:24:00.732Z,15.53
2022-12-28T07:26:30.058Z,14.70
2022-12-28T07:28:59.419Z,16.30
2022-12-28T07:31:30.216Z,14.13
2022-12-28T07:33:59.336Z,15.87
2022-12-28T07:36:28.432Z,16.83
2022-12-28T07:38:58.588Z,15.77
2022-12-28T07:41:28.920Z,14.73
2022-12-28T07:43:56.782Z,14.67
2022-12-28T07:46:26.210Z,17.93
2022-12-28T07:48:56.954Z,16.17
2022-12-28T07:51:27.101Z,15.30
2022-12-28T07:53:56.351Z,14.73
2022-12-28T07:56:25.457Z,13.30
2022-12-28T07:58:55.155Z,13.87
2022-12-28T08:01:25.015Z,13.27
2022-12-28T08:03:56.461Z,13.80
2022-12-28T08:06:25.652Z,13.43
2022-12-28T08:08:55.587Z,15.13
2022-12-28T08:11:25.280Z,14.73
2022-12-28T08:13:55.169Z,13.10
2022-12-28T08:16:24.928Z,12.97
2022-12-28T08:18:52.918Z,15.03
2022-12-28T08:21:24.380Z,11.97
2022-12-28T08:23:52.351Z,13.80
2022-12-28T08:26:21.850Z,13.47
2022-12-28T08:28:51.868Z,11.57
2022-12-28T08:31:21.195Z,10.80
2022-12-28T08:33:49.551Z,13.83
2022-12-28T08:36:17.889Z,9.73
2022-12-28T08:38:47.487Z,14.20
2022-12-28T08:41:17.891Z,9.40
2022-12-28T08:43:46.619Z,10.70
2022-12-28T08:46:17.418Z,10.63
2022-12-28T08:48:46.499Z,11.63
2022-12-28T08:51:17.044Z,10.40
2022-12-28T08:53:45.180Z,9.47
2022-12-28T08:56:16.237Z,11.17
2022-12-28T08:58:44.992Z,10.60
2022-12-28T09:01:14.917Z,8.37
2022-12-28T09:03:44.867Z,11.27
2022-12-28T09:06:14.012Z,9.47
2022-12-28T09:08:42.693Z,10.67
2022-12-28T09:11:12.865Z,7.73
2022-12-28T09:13:42.077Z,8.37
2022-12-28T09:16:11.527Z,10.33
2022-12-28T09:18:40.578Z,7.20
2022-12-28T09:21:11.497Z,9.40
2022-12-28T09:23:39.249Z,7.27
2022-12-28T09:26:08.742Z,8.20
2022-12-28T09:28:36.506Z,8.00
2022-12-28T09:31:07.699Z,8.43
2022-12-28T09:34:32.039Z,6.80
2022-12-28T09:36:43.835Z,9.60
2022-12-28T09:39:13.884Z,8.17
2022-12-28T09:41:48.202Z,9.03
2022-12-28T09:44:43.157Z,7.00
2022-12-28T09:47:24.160Z,8.93
2022-12-28T09:50:03.591Z,9.13
2022-12-28T09:52:34.994Z,6.97
2022-12-28T09:55:10.333Z,6.40
2022-12-28T09:57:41.242Z,7.50
2022-12-28T10:00:17.941Z,6.60
2022-12-28T10:02:50.772Z,6.57
2022-12-28T10:05:20.509Z,6.30
2022-12-28T10:07:48.394Z,7.87
2022-12-28T10:10:20.009Z,6.13
2022-12-28T10:12:49.618Z,8.20
2022-12-28T10:15:18.384Z,7.67
2022-12-28T10:17:47.453Z,6.83
2022-12-28T10:20:18.062Z,6.50
2022-12-28T10:22:50.346Z,6.40
2022-12-28T10:25:20.371Z,5.40
2022-12-28T10:27:48.369Z,7.80
2022-12-28T10:30:18.593Z,6.10
2022-12-28T10:32:56.677Z,8.33
2022-12-28T10:35:33.198Z,4.47
2022-12-28T10:38:04.746Z,7.40
2022-12-28T10:40:34.958Z,6.53
2022-12-28T10:45:53.045Z,7.17
2022-12-28T10:48:25.964Z,4.17
2022-12-28T10:50:56.043Z,4.63
2022-12-28T10:53:29.903Z,5.87
2022-12-28T10:56:24.869Z,6.23
2022-12-28T10:58:53.915Z,4.77
2022-12-28T11:01:26.846Z,6.47
2022-12-28T11:03:20.600Z,7.07
2022-12-28T11:04:09.184Z,4.97
2022-12-28T11:06:51.330Z,4.97
2022-12-28T11:09:22.660Z,5.37
2022-12-28T11:11:54.375Z,4.37
2022-12-28T11:14:32.779Z,4.37
2022-12-28T11:17:16.318Z,3.97
2022-12-28T11:19:45.814Z,4.40
2022-12-28T11:22:16.721Z,4.40
2022-12-28T11:24:45.567Z,3.77
2022-12-28T11:27:17.334Z,4.37
2022-12-28T11:29:47.878Z,3.77
2022-12-28T11:32:22.514Z,4.93
2022-12-28T11:34:53.521Z,4.40
2022-12-28T11:37:21.211Z,4.47
2022-12-28T11:39:50.506Z,4.10
2022-12-28T11:42:51.333Z,3.43
2022-12-28T11:45:51.424Z,3.27
2022-12-28T11:48:49.631Z,5.17
2022-12-28T11:51:19.725Z,4.27
2022-12-28T11:53:57.604Z,3.70
2022-12-28T11:56:27.655Z,2.63
2022-12-28T11:59:07.299Z,2.87
2022-12-28T12:01:53.642Z,2.70
2022-12-28T12:04:41.742Z,2.17
2022-12-28T12:07:56.874Z,3.03
2022-12-28T12:10:36.057Z,2.70
2022-12-28T12:13:30.204Z,3.43
2022-12-28T12:16:04.027Z,3.07
2022-12-28T12:18:39.516Z,1.53
2022-12-28T12:21:15.566Z,2.10
2022-12-28T12:23:49.408Z,4.20
2022-12-28T12:26:28.605Z,3.23
2022-12-28T12:29:01.684Z,1.93
2022-12-28T12:31:32.513Z,3.40
2022-12-28T12:34:13.323Z,3.50
2022-12-28T12:37:14.217Z,2.47
2022-12-28T12:40:04.646Z,4.07
2022-12-28T12:42:45.555Z,1.77
2022-12-28T12:45:22.932Z,5.70
2022-12-28T12:48:18.687Z,3.40
2022-12-28T12:51:11.906Z,1.80
2022-12-28T12:53:58.970Z,2.23
2022-12-28T12:56:38.432Z,2.37
2022-12-28T12:59:34.494Z,5.27
2022-12-28T13:02:19.819Z,2.23
2022-12-28T13:04:48.239Z,2.40
2022-12-28T13:07:20.985Z,2.00
2022-12-28T13:09:53.209Z,5.97
2022-12-28T13:12:21.896Z,1.93
2022-12-28T13:14:56.175Z,2.67
2022-12-28T13:17:25.628Z,2.50
2022-12-28T13:20:08.926Z,5.50
2022-12-28T13:22:36.603Z,3.43
2022-12-28T13:25:06.244Z,2.80
2022-12-28T13:27:36.509Z,4.60
2022-12-28T13:30:05.215Z,2.77
2022-12-28T13:32:38.623Z,1.97
2022-12-28T13:35:18.760Z,3.73
2022-12-28T13:38:00.112Z,2.40
2022-12-28T13:40:30.437Z,2.33
2022-12-28T13:43:17.550Z,4.60
2022-12-28T13:45:50.965Z,3.30
2022-12-28T13:48:18.936Z,2.43
2022-12-28T13:50:46.805Z,2.97
2022-12-28T13:53:20.573Z,1.80
2022-12-28T13:55:52.619Z,3.50
2022-12-28T13:58:24.313Z,2.10
2022-12-28T14:00:54.633Z,2.70
2022-12-28T14:03:22.843Z,2.17
2022-12-28T14:05:54.983Z,2.33
2022-12-28T14:08:23.550Z,2.50
2022-12-28T14:10:52.960Z,4.80
2022-12-28T14:13:21.542Z,2.80
2022-12-28T14:15:50.094Z,4.10
2022-12-28T14:18:19.466Z,3.47
2022-12-28T14:20:49.150Z,2.70
2022-12-28T14:23:20.479Z,1.70
2022-12-28T14:25:48.488Z,3.07
2022-12-28T14:28:22.774Z,4.83
2022-12-28T14:30:54.625Z,3.07
2022-12-28T14:33:25.382Z,2.60
2022-12-28T14:35:57.445Z,1.93
2022-12-28T14:38:30.993Z,1.40
2022-12-28T14:41:01.142Z,2.23
2022-12-28T14:43:32.979Z,2.33
2022-12-28T14:46:16.171Z,1.00
2022-12-28T14:48:45.507Z,1.83
2022-12-28T14:51:28.661Z,2.17
2022-12-28T14:54:17.359Z,2.27
2022-12-28T14:56:47.528Z,2.33
2022-12-28T14:59:22.677Z,1.83
2022-12-28T15:01:50.425Z,2.83
2022-12-28T15:04:34.695Z,3.17
2022-12-28T15:07:02.804Z,3.43
2022-12-28T15:09:30.548Z,1.97
2022-12-28T15:12:12.705Z,4.20
2022-12-28T15:14:42.165Z,2.90
2022-12-28T15:17:11.224Z,5.70
2022-12-28T15:19:39.206Z,2.60
2022-12-28T15:22:06.977Z,2.33
2022-12-28T15:24:35.097Z,3.60
2022-12-28T15:27:03.100Z,2.03
2022-12-28T15:32:20.205Z,2.87
2022-12-28T15:34:47.935Z,4.43
2022-12-28T15:37:15.723Z,3.13
2022-12-28T15:39:43.397Z,3.80
2022-12-28T15:42:11.098Z,1.80
2022-12-28T15:44:38.852Z,3.13
2022-12-28T15:47:06.923Z,2.50
2022-12-28T15:49:35.984Z,2.50
2022-12-28T15:52:03.636Z,2.27
2022-12-28T15:54:31.320Z,2.57
2022-12-28T15:56:59.095Z,3.00
2022-12-28T15:59:27.646Z,3.93
2022-12-28T16:01:55.424Z,2.97
2022-12-28T16:04:23.251Z,4.90
2022-12-28T16:06:52.265Z,2.20
2022-12-28T16:09:20.047Z,2.13
2022-12-28T16:11:54.700Z,2.43
2022-12-28T16:14:23.055Z,3.40
2022-12-28T16:16:51.320Z,3.97
2022-12-28T16:19:19.126Z,4.60
2022-12-28T16:21:47.269Z,4.67
2022-12-28T16:24:16.252Z,3.27
2022-12-28T16:26:44.700Z,2.90
2022-12-28T16:29:12.635Z,2.67
2022-12-28T16:31:41.292Z,5.70
2022-12-28T16:34:12.186Z,2.23
2022-12-28T16:36:40.266Z,2.37
2022-12-28T16:39:12.917Z,3.00
2022-12-28T16:41:41.954Z,2.93
2022-12-28T16:44:14.852Z,3.60
2022-12-28T16:46:42.921Z,3.57
2022-12-28T16:49:11.908Z,3.70
2022-12-28T16:51:40.565Z,3.40
2022-12-28T16:54:08.804Z,3.87
2022-12-28T16:56:36.913Z,3.70
2022-12-28T16:59:05.933Z,3.47
2022-12-28T17:01:33.703Z,4.27
2022-12-28T17:04:04.071Z,4.03
2022-12-28T17:06:32.369Z,6.20
2022-12-28T17:09:01.710Z,4.43
2022-12-28T17:11:29.910Z,2.53
2022-12-28T17:14:01.561Z,3.10
2022-12-28T17:16:30.651Z,3.20
2022-12-28T17:18:58.736Z,2.90
2022-12-28T17:21:26.724Z,2.60
2022-12-28T17:23:54.536Z,2.80
2022-12-28T17:26:22.295Z,3.00
2022-12-28T17:28:50.071Z,6.83
2022-12-28T17:31:21.263Z,4.53
2022-12-28T17:33:53.704Z,4.07
2022-12-28T17:36:22.304Z,4.47
2022-12-28T17:38:50.104Z,5.37
2022-12-28T17:41:20.696Z,4.83
2022-12-28T17:43:49.135Z,7.10
2022-12-28T17:46:17.157Z,7.43
2022-12-28T17:48:45.100Z,6.80
2022-12-28T17:51:14.210Z,5.03
2022-12-28T17:53:42.367Z,6.70
2022-12-28T17:56:13.214Z,4.60
2022-12-28T17:58:41.629Z,5.43
2022-12-28T18:01:10.042Z,3.03
2022-12-28T18:03:38.781Z,2.67
2022-12-28T18:06:07.314Z,2.73
2022-12-28T18:08:38.708Z,2.93
2022-12-28T18:11:08.596Z,2.70
2022-12-28T18:13:36.334Z,2.27
2022-12-28T18:16:06.142Z,3.13
2022-12-28T18:18:34.424Z,1.20
2022-12-28T18:21:04.263Z,2.23
2022-12-28T18:23:32.462Z,4.20
2022-12-28T18:26:06.006Z,3.10
2022-12-28T18:28:35.407Z,2.97
2022-12-28T18:31:05.291Z,2.30
2022-12-28T18:33:34.244Z,2.90
2022-12-28T18:36:03.658Z,4.47
2022-12-28T18:38:31.678Z,2.43
2022-12-28T18:41:00.140Z,3.00
2022-12-28T18:43:29.236Z,1.40
2022-12-28T18:45:58.867Z,1.50
2022-12-28T18:48:27.983Z,1.77
2022-12-28T18:50:56.553Z,3.67
2022-12-28T18:53:25.611Z,2.90
2022-12-28T18:55:58.445Z,4.93
2022-12-28T18:58:26.461Z,5.00
2022-12-28T19:00:55.573Z,1.67
2022-12-28T19:03:23.372Z,3.73
2022-12-28T19:06:02.291Z,1.30
2022-12-28T19:08:31.258Z,1.43
2022-12-28T19:10:58.931Z,2.07
2022-12-28T19:13:26.720Z,2.10
2022-12-28T19:15:55.780Z,2.27
2022-12-28T19:18:23.431Z,2.50
2022-12-28T19:20:55.839Z,2.30
2022-12-28T19:23:23.585Z,3.87
2022-12-28T19:25:51.313Z,4.37
2022-12-28T19:28:19.023Z,5.90
2022-12-28T19:30:46.878Z,5.57
2022-12-28T19:33:15.990Z,4.63
2022-12-28T19:35:43.632Z,3.93
2022-12-28T19:38:11.378Z,2.90
2022-12-28T19:40:39.112Z,2.63
2022-12-28T19:43:07.036Z,3.10
2022-12-28T19:45:34.769Z,3.80
2022-12-28T19:48:02.493Z,2.63
2022-12-28T19:50:31.502Z,2.03
2022-12-28T19:52:59.255Z,2.13
2022-12-28T19:55:26.918Z,2.80
2022-12-28T19:57:54.606Z,2.07
2022-12-28T20:00:22.458Z,1.80
2022-12-28T20:02:50.265Z,2.37
2022-12-28T20:05:18.117Z,1.43
2022-12-28T20:07:47.113Z,1.53
2022-12-28T20:10:14.916Z,2.60
2022-12-28T20:12:42.615Z,2.00
2022-12-28T20:15:10.815Z,1.70
2022-12-28T20:17:38.467Z,3.67
2022-12-28T20:20:07.301Z,1.37
2022-12-28T20:22:35.081Z,1.20
2022-12-28T20:25:04.362Z,2.70
2022-12-28T20:27:32.153Z,7.70
2022-12-28T20:29:59.922Z,4.90
2022-12-28T20:32:27.674Z,1.47
2022-12-28T20:34:55.606Z,1.70
2022-12-28T20:37:23.400Z,3.43
2022-12-28T20:39:51.132Z,1.97
2022-12-28T20:42:37.722Z,2.20
2022-12-28T20:45:06.200Z,2.23
2022-12-28T20:47:34.048Z,2.63
2022-12-28T20:50:03.892Z,2.80
2022-12-28T20:52:33.782Z,1.87
2022-12-28T20:55:02.038Z,1.43
2022-12-28T20:57:31.292Z,3.33
2022-12-28T21:00:00.343Z,1.43
2022-12-28T21:02:30.204Z,2.47
2022-12-28T21:04:58.013Z,2.77
2022-12-28T21:07:26.195Z,1.70
2022-12-28T21:09:54.025Z,2.40
2022-12-28T21:12:21.816Z,2.57
2022-12-28T21:14:50.991Z,1.83
2022-12-28T21:17:18.894Z,2.07
2022-12-28T21:19:47.772Z,2.53
2022-12-28T21:22:15.605Z,2.00
2022-12-28T21:24:43.488Z,2.43
2022-12-28T21:27:11.315Z,1.20
2022-12-28T21:29:39.547Z,1.40
2022-12-28T21:32:09.432Z,1.37
2022-12-28T21:34:37.353Z,2.10
2022-12-28T21:37:22.146Z,2.60
2022-12-28T21:39:50.236Z,3.13
2022-12-28T21:42:17.948Z,3.17
2022-12-28T21:44:45.905Z,1.33
2022-12-28T21:47:15.154Z,1.90
2022-12-28T21:49:44.549Z,3.00
2022-12-28T21:52:12.401Z,1.80
2022-12-28T21:54:40.539Z,2.47
2022-12-28T21:57:15.204Z,2.40
2022-12-28T21:59:43.863Z,1.40
2022-12-28T22:02:46.393Z,2.27
2022-12-28T22:05:32.309Z,3.23
2022-12-28T22:08:13.951Z,1.83
2022-12-28T22:10:59.209Z,2.20
2022-12-28T22:13:27.038Z,1.30
2022-12-28T22:15:57.976Z,3.13
2022-12-28T22:19:00.436Z,3.97
2022-12-28T22:21:14.809Z,1.40
2022-12-28T22:23:42.584Z,1.53
2022-12-28T22:26:10.290Z,1.93
2022-12-28T22:28:37.970Z,1.43
2022-12-28T22:31:06.503Z,1.70
2022-12-28T22:33:35.768Z,1.07
2022-12-28T22:36:10.286Z,1.63
2022-12-28T22:38:37.983Z,2.10
2022-12-28T22:41:05.838Z,2.30
2022-12-28T22:43:33.570Z,2.03
2022-12-28T22:46:03.340Z,1.07
2022-12-28T22:48:31.407Z,2.77
2022-12-28T22:51:04.155Z,2.10
2022-12-28T22:53:32.085Z,3.70
2022-12-28T22:56:00.314Z,2.20
2022-12-28T22:58:28.828Z,2.83
2022-12-28T23:01:04.960Z,1.73
2022-12-28T23:03:32.791Z,1.30
2022-12-28T23:06:00.511Z,2.83
2022-12-28T23:08:29.550Z,2.30
2022-12-28T23:10:59.335Z,2.87
2022-12-28T23:13:27.995Z,5.87
2022-12-28T23:15:55.863Z,2.20
2022-12-28T23:18:41.170Z,2.03
2022-12-28T23:21:34.174Z,2.73
2022-12-28T23:24:20.901Z,0.80
2022-12-28T23:27:06.297Z,1.87
2022-12-28T23:29:33.978Z,1.17
2022-12-28T23:32:01.662Z,1.90
2022-12-28T23:34:29.370Z,3.80
2022-12-28T23:36:57.191Z,2.63
2022-12-28T23:39:26.301Z,1.27
2022-12-28T23:41:54.892Z,1.73
2022-12-28T23:44:24.335Z,2.67
2022-12-28T23:46:58.558Z,3.47
2022-12-28T23:49:26.487Z,3.73
2022-12-28T23:51:54.524Z,4.10
2022-12-28T23:54:22.421Z,4.03
2022-12-28T23:56:51.462Z,2.23
2022-12-28T23:59:19.117Z,2.93
